createdAt,value
2022-10-22T00:00:57.907Z,37.97
2022-10-22T00:03:40.450Z,37.20
2022-10-22T00:06:08.556Z,34.35
2022-10-22T00:08:36.602Z,37.17
2022-10-22T00:11:13.118Z,36.70
2022-10-22T00:13:41.761Z,39.00
2022-10-22T00:16:09.822Z,36.10
2022-10-22T00:18:38.217Z,41.38
2022-10-22T00:21:07.362Z,34.88
2022-10-22T00:23:35.273Z,42.55
2022-10-22T00:26:02.938Z,45.15
2022-10-22T00:28:30.704Z,35.88
2022-10-22T00:31:00.432Z,42.47
2022-10-22T00:33:28.991Z,37.10
2022-10-22T00:35:56.940Z,37.47
2022-10-22T00:38:24.745Z,34.75
2022-10-22T00:40:52.514Z,38.60
2022-10-22T00:43:21.483Z,39.65
2022-10-22T00:45:49.210Z,41.97
2022-10-22T00:48:19.405Z,40.40
2022-10-22T00:50:57.908Z,39.05
2022-10-22T00:53:47.111Z,37.17
2022-10-22T00:56:15.470Z,40.25
2022-10-22T00:58:49.167Z,42.58
2022-10-22T01:01:27.139Z,40.13
2022-10-22T01:03:55.849Z,45.33
2022-10-22T01:06:32.265Z,41.53
2022-10-22T01:09:21.503Z,39.78
2022-10-22T01:12:30.701Z,47.05
2022-10-22T01:15:01.161Z,38.47
2022-10-22T01:17:58.687Z,44.70
2022-10-22T01:20:51.108Z,47.35
2022-10-22T01:23:49.081Z,46.72
2022-10-22T01:26:47.143Z,45.83
2022-10-22T01:29:30.633Z,47.65
2022-10-22T01:32:09.476Z,42.85
2022-10-22T01:34:41.596Z,45.83
2022-10-22T01:37:12.330Z,42.20
2022-10-22T01:39:43.588Z,41.85
2022-10-22T01:42:13.751Z,44.22
2022-10-22T01:44:41.600Z,44.75
2022-10-22T01:47:20.779Z,46.63
2022-10-22T01:50:14.599Z,43.03
2022-10-22T01:53:01.045Z,42.92
2022-10-22T01:55:31.885Z,43.95
2022-10-22T01:58:24.270Z,43.78
2022-10-22T02:01:05.356Z,47.15
2022-10-22T02:03:58.987Z,47.45
2022-10-22T02:06:29.609Z,46.95
2022-10-22T02:09:00.348Z,44.00
2022-10-22T02:11:28.530Z,51.05
2022-10-22T02:14:01.268Z,45.15
2022-10-22T02:16:36.520Z,45.70
2022-10-22T02:19:12.361Z,50.80
2022-10-22T02:21:40.063Z,43.78
2022-10-22T02:24:08.685Z,48.33
2022-10-22T02:26:46.716Z,47.33
2022-10-22T02:29:30.523Z,49.55
2022-10-22T02:32:00.556Z,46.95
2022-10-22T02:34:31.804Z,47.97
2022-10-22T02:37:01.103Z,49.47
2022-10-22T02:39:31.603Z,48.28
2022-10-22T02:42:00.712Z,48.53
2022-10-22T02:44:28.605Z,52.47
2022-10-22T02:46:56.856Z,50.10
2022-10-22T02:49:24.588Z,47.55
2022-10-22T02:51:52.203Z,51.03
2022-10-22T02:54:19.997Z,52.97
2022-10-22T02:56:47.576Z,53.80
2022-10-22T02:59:15.535Z,50.17
2022-10-22T03:01:43.168Z,49.15
2022-10-22T03:04:11.500Z,52.83
2022-10-22T03:06:39.416Z,50.22
2022-10-22T03:09:07.368Z,48.22
2022-10-22T03:11:35.017Z,53.50
2022-10-22T03:14:02.766Z,49.38
2022-10-22T03:16:30.368Z,51.10
2022-10-22T03:18:58.214Z,49.75
2022-10-22T03:22:02.448Z,53.30
2022-10-22T03:24:35.679Z,49.47
2022-10-22T03:27:03.366Z,58.67
2022-10-22T03:29:35.120Z,51.35
2022-10-22T03:32:02.965Z,50.10
2022-10-22T03:34:30.738Z,51.08
2022-10-22T03:37:00.813Z,46.60
2022-10-22T03:39:31.790Z,51.38
2022-10-22T03:42:00.043Z,51.25
2022-10-22T03:44:28.703Z,50.47
2022-10-22T03:46:58.729Z,45.30
2022-10-22T03:49:29.748Z,47.53
2022-10-22T03:51:57.587Z,45.35
2022-10-22T03:54:25.375Z,49.78
2022-10-22T03:56:52.968Z,44.40
2022-10-22T03:59:20.744Z,53.47
2022-10-22T04:01:48.303Z,49.05
2022-10-22T04:04:16.127Z,47.53
2022-10-22T04:06:43.665Z,50.05
2022-10-22T04:09:11.442Z,48.80
2022-10-22T04:11:39.105Z,49.13
2022-10-22T04:14:06.965Z,47.13
2022-10-22T04:16:34.576Z,46.85
2022-10-22T04:19:02.622Z,46.63
2022-10-22T04:21:30.496Z,45.95
2022-10-22T04:23:58.279Z,50.53
2022-10-22T04:26:26.582Z,48.25
2022-10-22T04:28:54.971Z,48.40
2022-10-22T04:31:25.235Z,48.88
2022-10-22T04:33:55.020Z,49.78
2022-10-22T04:36:23.330Z,48.42
2022-10-22T04:38:57.760Z,48.08
2022-10-22T04:44:00.215Z,49.83
2022-10-22T04:46:30.552Z,51.10
2022-10-22T04:48:58.575Z,47.55
2022-10-22T04:51:27.895Z,48.22
2022-10-22T04:53:56.157Z,51.15
2022-10-22T04:56:26.761Z,46.78
2022-10-22T04:59:01.113Z,52.22
2022-10-22T05:01:30.177Z,46.08
2022-10-22T05:04:00.502Z,48.15
2022-10-22T05:06:29.590Z,53.80
2022-10-22T05:09:00.705Z,50.92
2022-10-22T05:11:33.319Z,49.25
2022-10-22T05:14:03.161Z,50.40
2022-10-22T05:16:31.725Z,49.90
2022-10-22T05:19:01.480Z,51.30
2022-10-22T05:21:29.527Z,50.58
2022-10-22T05:23:59.947Z,48.75
2022-10-22T05:26:28.688Z,52.00
2022-10-22T05:28:57.325Z,50.13
2022-10-22T05:31:25.043Z,49.92
2022-10-22T05:33:52.853Z,50.42
2022-10-22T05:36:22.132Z,52.05
2022-10-22T05:38:50.418Z,54.38
2022-10-22T05:41:20.940Z,54.60
2022-10-22T05:43:49.235Z,55.80
2022-10-22T05:46:22.569Z,51.67
2022-10-22T05:51:24.473Z,55.83
2022-10-22T05:53:57.584Z,52.85
2022-10-22T05:56:27.057Z,49.67
2022-10-22T05:58:56.417Z,50.45
2022-10-22T06:01:30.018Z,53.05
2022-10-22T06:04:00.637Z,51.67
2022-10-22T06:06:31.392Z,52.05
2022-10-22T06:09:15.664Z,55.58
2022-10-22T06:11:43.497Z,51.88
2022-10-22T06:14:11.584Z,54.92
2022-10-22T06:16:39.346Z,52.83
2022-10-22T06:19:07.817Z,52.45
2022-10-22T06:21:35.405Z,51.25
2022-10-22T06:24:03.333Z,45.08
2022-10-22T06:26:31.331Z,47.28
2022-10-22T06:28:59.715Z,52.65
2022-10-22T06:31:28.585Z,53.17
2022-10-22T06:33:57.645Z,50.42
2022-10-22T06:36:26.235Z,50.25
2022-10-22T06:38:55.631Z,47.28
2022-10-22T06:41:25.770Z,46.45
2022-10-22T06:43:58.136Z,47.47
2022-10-22T06:46:26.903Z,47.72
2022-10-22T06:48:57.997Z,47.85
2022-10-22T06:51:26.716Z,50.03
2022-10-22T06:53:55.656Z,44.78
2022-10-22T06:56:25.535Z,46.85
2022-10-22T06:58:55.755Z,47.67
2022-10-22T07:01:27.169Z,49.47
2022-10-22T07:03:55.291Z,46.05
2022-10-22T07:06:24.494Z,42.22
2022-10-22T07:08:53.852Z,43.88
2022-10-22T07:11:27.220Z,44.50
2022-10-22T07:13:59.848Z,49.13
2022-10-22T07:16:31.188Z,41.15
2022-10-22T07:19:01.964Z,47.70
2022-10-22T07:21:30.425Z,42.08
2022-10-22T07:23:59.150Z,45.70
2022-10-22T07:26:30.921Z,41.25
2022-10-22T07:29:00.530Z,39.20
2022-10-22T07:31:28.743Z,41.38
2022-10-22T07:33:57.394Z,45.20
2022-10-22T07:36:25.230Z,38.38
2022-10-22T07:38:59.367Z,43.05
2022-10-22T07:43:57.254Z,39.78
2022-10-22T07:46:25.389Z,35.85
2022-10-22T07:48:53.284Z,44.30
2022-10-22T07:51:21.855Z,38.55
2022-10-22T07:53:49.773Z,38.67
2022-10-22T07:56:17.708Z,38.80
2022-10-22T07:58:45.878Z,38.30
2022-10-22T08:01:13.664Z,38.72
2022-10-22T08:03:41.401Z,37.97
2022-10-22T08:06:12.998Z,38.53
2022-10-22T08:08:41.604Z,38.22
2022-10-22T08:11:10.976Z,38.42
2022-10-22T08:13:44.119Z,37.83
2022-10-22T08:18:40.601Z,35.22
2022-10-22T08:21:08.292Z,41.58
2022-10-22T08:23:36.181Z,42.67
2022-10-22T08:26:04.227Z,36.95
2022-10-22T08:28:36.883Z,39.75
2022-10-22T08:31:07.558Z,41.67
2022-10-22T08:33:35.974Z,37.00
2022-10-22T08:36:03.706Z,36.15
2022-10-22T08:38:31.676Z,36.55
2022-10-22T08:41:26.075Z,41.30
2022-10-22T08:44:23.540Z,33.95
2022-10-22T08:47:44.594Z,34.22
2022-10-22T08:50:17.873Z,34.70
2022-10-22T08:52:52.767Z,34.45
2022-10-22T08:55:24.386Z,37.47
2022-10-22T08:58:09.478Z,34.00
2022-10-22T09:01:09.504Z,34.28
2022-10-22T09:03:48.021Z,31.83
2022-10-22T09:06:26.300Z,32.35
2022-10-22T09:08:56.493Z,33.85
2022-10-22T09:11:26.460Z,33.67
2022-10-22T09:13:56.211Z,40.03
2022-10-22T09:16:38.706Z,33.25
2022-10-22T09:19:12.108Z,33.63
2022-10-22T09:21:48.404Z,34.40
2022-10-22T09:24:18.527Z,31.17
2022-10-22T09:26:46.362Z,31.88
2022-10-22T09:29:21.260Z,36.05
2022-10-22T09:31:49.079Z,32.10
2022-10-22T09:34:21.831Z,35.13
2022-10-22T09:37:03.962Z,36.15
2022-10-22T09:39:41.555Z,32.05
2022-10-22T09:42:10.411Z,33.08
2022-10-22T09:44:38.992Z,37.38
2022-10-22T09:47:37.253Z,30.38
2022-10-22T09:50:48.562Z,34.78
2022-10-22T09:53:22.550Z,32.80
2022-10-22T09:58:29.571Z,31.27
2022-10-22T10:01:01.197Z,31.55
2022-10-22T10:03:31.947Z,30.70
2022-10-22T10:06:05.046Z,29.30
2022-10-22T10:08:34.431Z,29.13
2022-10-22T10:11:13.124Z,32.45
2022-10-22T10:13:59.139Z,30.98
2022-10-22T10:16:34.320Z,31.08
2022-10-22T10:19:47.540Z,35.35
2022-10-22T10:22:34.023Z,34.85
2022-10-22T10:25:19.855Z,37.17
2022-10-22T10:28:10.712Z,35.63
2022-10-22T10:30:50.975Z,34.88
2022-10-22T10:34:00.050Z,35.47
2022-10-22T10:37:04.060Z,39.55
2022-10-22T10:39:51.953Z,42.63
2022-10-22T10:42:30.792Z,38.40
2022-10-22T10:45:13.288Z,36.67
2022-10-22T10:47:44.289Z,44.03
2022-10-22T10:50:22.972Z,42.38
2022-10-22T10:53:14.451Z,37.53
2022-10-22T10:56:19.432Z,43.95
2022-10-22T10:59:16.522Z,44.17
2022-10-22T11:02:08.298Z,47.47
2022-10-22T11:05:20.706Z,45.92
2022-10-22T11:08:17.345Z,50.15
2022-10-22T11:10:50.322Z,48.70
2022-10-22T11:13:41.191Z,46.92
2022-10-22T11:16:37.230Z,47.85
2022-10-22T11:19:51.246Z,49.03
2022-10-22T11:22:42.012Z,43.90
2022-10-22T11:25:22.921Z,41.67
2022-10-22T11:28:29.042Z,43.95
2022-10-22T11:31:07.222Z,41.55
2022-10-22T11:34:04.728Z,44.17
2022-10-22T11:36:38.816Z,44.78
2022-10-22T11:39:06.747Z,42.60
2022-10-22T11:41:36.101Z,40.67
2022-10-22T11:44:23.213Z,43.33
2022-10-22T11:46:58.229Z,44.83
2022-10-22T11:49:43.595Z,45.78
2022-10-22T11:52:26.411Z,46.50
2022-10-22T11:55:00.949Z,50.22
2022-10-22T11:57:38.183Z,47.10
2022-10-22T12:00:40.367Z,46.97
2022-10-22T12:03:43.886Z,47.63
2022-10-22T12:06:19.679Z,50.38
2022-10-22T12:08:50.259Z,50.17
2022-10-22T12:11:38.376Z,52.78
2022-10-22T12:14:27.987Z,46.83
2022-10-22T12:17:17.864Z,46.13
2022-10-22T12:19:51.657Z,45.67
2022-10-22T12:22:29.524Z,48.75
2022-10-22T12:25:02.275Z,49.47
2022-10-22T12:27:39.474Z,47.30
2022-10-22T12:30:22.750Z,48.33
2022-10-22T12:33:00.505Z,42.60
2022-10-22T12:35:34.109Z,45.08
2022-10-22T12:38:08.307Z,42.20
2022-10-22T12:40:36.347Z,46.60
2022-10-22T12:43:19.328Z,44.75
2022-10-22T12:45:49.427Z,41.25
2022-10-22T12:48:38.580Z,45.45
2022-10-22T12:51:08.224Z,44.65
2022-10-22T12:53:39.687Z,42.72
2022-10-22T12:56:35.882Z,38.97
2022-10-22T12:59:21.061Z,43.40
2022-10-22T13:01:50.660Z,39.55
2022-10-22T13:04:37.352Z,39.53
2022-10-22T13:07:18.312Z,40.05
2022-10-22T13:09:59.449Z,40.00
2022-10-22T13:12:34.598Z,36.53
2022-10-22T13:15:35.570Z,41.67
2022-10-22T13:18:21.110Z,42.42
2022-10-22T13:21:02.956Z,40.63
2022-10-22T13:23:33.598Z,36.53
2022-10-22T13:26:14.807Z,42.25
2022-10-22T13:28:43.036Z,42.13
2022-10-22T13:31:20.188Z,35.70
2022-10-22T13:33:56.291Z,41.38
2022-10-22T13:36:24.868Z,42.67
2022-10-22T13:38:53.151Z,42.33
2022-10-22T13:41:23.880Z,39.72
2022-10-22T13:43:52.656Z,39.75
2022-10-22T13:46:21.984Z,39.95
2022-10-22T13:48:52.713Z,41.95
2022-10-22T13:51:23.577Z,44.67
2022-10-22T13:53:53.425Z,45.97
2022-10-22T13:56:22.541Z,41.60
2022-10-22T13:58:50.687Z,43.30
2022-10-22T14:01:21.619Z,43.67
2022-10-22T14:03:52.011Z,43.25
2022-10-22T14:06:22.422Z,38.72
2022-10-22T14:09:00.645Z,38.85
2022-10-22T14:11:30.722Z,44.35
2022-10-22T14:13:58.834Z,43.58
2022-10-22T14:16:31.291Z,43.67
2022-10-22T14:18:59.852Z,44.25
2022-10-22T14:21:33.011Z,44.03
2022-10-22T14:24:00.647Z,42.20
2022-10-22T14:26:33.706Z,43.78
2022-10-22T14:29:11.374Z,42.92
2022-10-22T14:31:42.749Z,47.80
2022-10-22T14:34:13.844Z,48.90
2022-10-22T14:36:43.949Z,58.30
2022-10-22T14:39:12.960Z,48.22
2022-10-22T14:41:41.268Z,51.03
2022-10-22T14:44:14.336Z,54.58
2022-10-22T14:46:44.360Z,55.35
2022-10-22T14:49:12.569Z,56.72
2022-10-22T14:51:40.811Z,55.78
2022-10-22T14:54:08.498Z,48.75
2022-10-22T14:59:09.896Z,48.42
2022-10-22T15:01:39.078Z,51.67
2022-10-22T15:04:06.804Z,53.70
2022-10-22T15:06:34.921Z,49.35
2022-10-22T15:09:02.709Z,49.58
2022-10-22T15:11:30.587Z,54.63
2022-10-22T15:13:58.214Z,52.40
2022-10-22T15:16:26.060Z,46.63
2022-10-22T15:18:53.699Z,49.05
2022-10-22T15:21:23.092Z,52.00
2022-10-22T15:23:50.916Z,54.22
2022-10-22T15:26:19.249Z,50.10
2022-10-22T15:28:46.974Z,54.97
2022-10-22T15:31:15.263Z,56.33
2022-10-22T15:33:43.850Z,57.00
2022-10-22T15:36:14.525Z,50.60
2022-10-22T15:38:43.107Z,61.50
2022-10-22T15:41:12.672Z,56.92
2022-10-22T15:43:40.337Z,58.92
2022-10-22T15:46:16.321Z,54.08
2022-10-22T15:48:44.289Z,56.38
2022-10-22T15:51:14.809Z,61.78
2022-10-22T15:53:43.075Z,60.45
2022-10-22T15:56:14.066Z,64.82
2022-10-22T15:58:41.628Z,68.55
2022-10-22T16:01:14.235Z,68.15
2022-10-22T16:03:42.341Z,70.82
2022-10-22T16:06:10.392Z,69.13
2022-10-22T16:08:38.937Z,66.93
2022-10-22T16:11:06.810Z,68.35
2022-10-22T16:13:37.029Z,73.00
2022-10-22T16:16:08.246Z,74.32
2022-10-22T16:18:36.057Z,76.63
2022-10-22T16:21:04.440Z,83.55
2022-10-22T16:23:32.018Z,79.10
2022-10-22T16:26:02.582Z,75.30
2022-10-22T16:28:30.304Z,75.35
2022-10-22T16:31:06.183Z,78.22
2022-10-22T16:33:41.395Z,80.50
2022-10-22T16:36:14.770Z,72.88
2022-10-22T16:38:42.501Z,67.53
2022-10-22T16:41:14.112Z,78.32
2022-10-22T16:43:49.660Z,74.18
2022-10-22T16:46:19.889Z,73.53
2022-10-22T16:48:49.486Z,69.65
2022-10-22T16:51:20.166Z,76.18
2022-10-22T16:53:48.339Z,70.50
2022-10-22T16:56:17.834Z,72.78
2022-10-22T16:58:50.762Z,69.50
2022-10-22T17:01:20.566Z,71.50
2022-10-22T17:03:48.248Z,68.50
2022-10-22T17:06:16.124Z,71.70
2022-10-22T17:08:44.515Z,68.47
2022-10-22T17:11:17.407Z,69.72
2022-10-22T17:13:47.029Z,69.88
2022-10-22T17:16:16.803Z,68.57
2022-10-22T17:21:19.974Z,71.18
2022-10-22T17:23:47.881Z,75.22
2022-10-22T17:26:22.150Z,76.15
2022-10-22T17:28:50.398Z,79.18
2022-10-22T17:31:21.510Z,79.20
2022-10-22T17:33:52.104Z,82.90
2022-10-22T17:36:21.640Z,80.65
2022-10-22T17:38:52.276Z,83.05
2022-10-22T17:41:23.719Z,83.90
2022-10-22T17:43:51.689Z,82.03
2022-10-22T17:46:25.134Z,87.10
2022-10-22T17:48:57.976Z,85.00
2022-10-22T17:51:27.749Z,94.10
2022-10-22T17:53:55.537Z,101.53
2022-10-22T17:56:26.084Z,90.82
2022-10-22T17:58:55.371Z,96.50
2022-10-22T18:01:26.538Z,94.50
2022-10-22T18:03:55.999Z,93.82
2022-10-22T18:06:23.813Z,94.95
2022-10-22T18:08:51.500Z,105.10
2022-10-22T18:11:21.680Z,95.30
2022-10-22T18:13:50.828Z,97.85
2022-10-22T18:16:19.572Z,102.18
2022-10-22T18:18:48.902Z,110.05
2022-10-22T18:21:17.994Z,104.00
2022-10-22T18:23:46.280Z,98.47
2022-10-22T18:26:14.883Z,96.97
2022-10-22T18:28:42.578Z,103.65
2022-10-22T18:31:16.121Z,106.55
2022-10-22T18:33:43.799Z,103.90
2022-10-22T18:36:15.701Z,102.50
2022-10-22T18:38:43.392Z,103.13
2022-10-22T18:41:14.328Z,100.20
2022-10-22T18:43:42.071Z,95.43
2022-10-22T18:46:10.215Z,106.38
2022-10-22T18:48:37.790Z,101.95
2022-10-22T18:51:08.335Z,105.55
2022-10-22T18:53:37.163Z,100.25
2022-10-22T18:56:07.067Z,110.78
2022-10-22T18:58:42.411Z,106.80
2022-10-22T19:01:13.129Z,101.18
2022-10-22T19:03:41.131Z,114.00
2022-10-22T19:06:09.071Z,106.97
2022-10-22T19:08:37.788Z,110.30
2022-10-22T19:11:14.696Z,114.18
2022-10-22T19:13:43.009Z,105.30
2022-10-22T19:16:15.478Z,113.65
2022-10-22T19:18:43.095Z,122.88
2022-10-22T19:21:12.237Z,104.88
2022-10-22T19:23:39.889Z,110.50
2022-10-22T19:26:11.070Z,108.25
2022-10-22T19:28:39.999Z,109.20
2022-10-22T19:31:13.275Z,103.63
2022-10-22T19:33:40.987Z,110.53
2022-10-22T19:36:12.781Z,98.30
2022-10-22T19:38:42.391Z,107.50
2022-10-22T19:41:16.079Z,97.93
2022-10-22T19:43:44.782Z,97.85
2022-10-22T19:46:13.296Z,93.22
2022-10-22T19:48:40.993Z,92.88
2022-10-22T19:51:14.488Z,97.65
2022-10-22T19:53:42.567Z,91.00
2022-10-22T19:56:11.883Z,91.55
2022-10-22T19:58:39.906Z,90.80
2022-10-22T20:01:11.163Z,88.38
2022-10-22T20:03:40.180Z,97.43
2022-10-22T20:06:10.334Z,92.45
2022-10-22T20:08:38.920Z,88.72
2022-10-22T20:11:10.716Z,84.97
2022-10-22T20:16:07.798Z,76.38
2022-10-22T20:18:36.269Z,82.07
2022-10-22T20:21:09.175Z,77.38
2022-10-22T20:23:36.955Z,73.78
2022-10-22T20:26:05.846Z,79.30
2022-10-22T20:28:33.488Z,74.15
2022-10-22T20:31:01.447Z,71.85
2022-10-22T20:33:29.017Z,70.50
2022-10-22T20:36:05.102Z,72.95
2022-10-22T20:38:33.550Z,72.72
2022-10-22T20:41:11.314Z,68.40
2022-10-22T20:43:39.067Z,66.63
2022-10-22T20:46:06.932Z,67.70
2022-10-22T20:48:34.608Z,71.32
2022-10-22T20:51:02.453Z,61.53
2022-10-22T20:53:29.994Z,61.33
2022-10-22T20:55:59.027Z,58.38
2022-10-22T20:58:30.638Z,57.63
2022-10-22T21:01:00.998Z,54.10
2022-10-22T21:03:28.761Z,55.30
2022-10-22T21:05:56.639Z,48.88
2022-10-22T21:08:24.209Z,47.67
2022-10-22T21:10:52.100Z,42.97
2022-10-22T21:13:19.703Z,48.03
2022-10-22T21:15:47.733Z,44.42
2022-10-22T21:18:15.511Z,42.15
2022-10-22T21:20:43.264Z,45.58
2022-10-22T21:23:11.283Z,39.95
2022-10-22T21:25:41.964Z,38.72
2022-10-22T21:28:11.709Z,38.90
2022-10-22T21:30:45.632Z,42.85
2022-10-22T21:33:13.562Z,43.95
2022-10-22T21:35:49.090Z,42.92
2022-10-22T21:38:16.779Z,40.55
2022-10-22T21:40:44.678Z,43.03
2022-10-22T21:43:12.437Z,43.00
2022-10-22T21:45:40.324Z,40.63
2022-10-22T21:48:08.225Z,41.33
2022-10-22T21:50:43.021Z,44.72
2022-10-22T21:53:12.113Z,42.58
2022-10-22T21:55:41.109Z,42.72
2022-10-22T21:58:09.204Z,45.53
2022-10-22T22:00:37.294Z,45.58
2022-10-22T22:03:07.616Z,45.38
2022-10-22T22:05:35.500Z,47.63
2022-10-22T22:08:03.185Z,48.97
2022-10-22T22:10:31.092Z,45.95
2022-10-22T22:12:58.679Z,44.70
2022-10-22T22:15:26.452Z,42.55
2022-10-22T22:17:54.048Z,50.28
2022-10-22T22:20:21.834Z,45.17
2022-10-22T22:22:49.557Z,46.67
2022-10-22T22:25:17.396Z,42.35
2022-10-22T22:27:45.284Z,44.05
2022-10-22T22:30:13.302Z,47.65
2022-10-22T22:32:42.420Z,55.38
2022-10-22T22:35:11.386Z,48.58
2022-10-22T22:37:39.059Z,47.08
2022-10-22T22:40:07.545Z,55.45
2022-10-22T22:42:35.201Z,52.63
2022-10-22T22:45:03.300Z,60.35
2022-10-22T22:47:31.260Z,49.42
2022-10-22T22:49:59.093Z,51.03
2022-10-22T22:52:26.678Z,51.45
2022-10-22T22:54:54.577Z,56.65
2022-10-22T22:57:22.265Z,55.67
2022-10-22T22:59:50.924Z,58.60
2022-10-22T23:02:18.500Z,53.65
2022-10-22T23:04:47.518Z,50.95
2022-10-22T23:07:15.146Z,49.28
2022-10-22T23:09:43.057Z,50.63
2022-10-22T23:12:10.694Z,45.20
2022-10-22T23:14:38.507Z,50.83
2022-10-22T23:17:06.075Z,50.78
2022-10-22T23:19:34.027Z,48.05
2022-10-22T23:22:01.662Z,52.70
2022-10-22T23:24:30.780Z,50.55
2022-10-22T23:27:02.306Z,47.72
2022-10-22T23:29:33.126Z,45.33
2022-10-22T23:32:07.524Z,48.33
2022-10-22T23:34:35.522Z,46.85
2022-10-22T23:37:03.223Z,45.13
2022-10-22T23:39:31.039Z,46.83
2022-10-22T23:41:59.034Z,52.72
2022-10-22T23:44:26.867Z,49.38
2022-10-22T23:46:55.187Z,48.90
2022-10-22T23:49:23.006Z,46.88
2022-10-22T23:51:50.634Z,47.20
2022-10-22T23:54:18.697Z,45.20
2022-10-22T23:56:46.760Z,45.72
